N174K KARR-KARR
Flight info
| Callsign | N174K |
|---|---|
| Flight time | 0h 8m |
| Altitude | 5500 |
| Route | VFR |
| Aircraft | C172/L-V/N |
Departure
| Time | 2026-04-10 18:57 |
|---|---|
| Airport | Aurora Municipal Airport (KARR) |
Arrival
| Time | 2026-04-10 19:05 |
|---|---|
| Airport | Aurora Municipal Airport (KARR) |
| Time | Latitude | Longitude | Altitude | Speed | Heading |
|---|---|---|---|---|---|
| 2026-04-10 18:48 | 41.76794 | -88.46914 | 705 ft | 0 kts | 180° |
| 2026-04-10 18:53 | 41.76794 | -88.46915 | 705 ft | 0 kts | 187° |
| 2026-04-10 18:53 | 41.76790 | -88.46930 | 700 ft | 2 kts | 316° |
| 2026-04-10 18:53 | 41.76794 | -88.46929 | 705 ft | 2 kts | 30° |
| 2026-04-10 18:53 | 41.76850 | -88.46919 | 702 ft | 7 kts | 328° |
| 2026-04-10 18:54 | 41.76866 | -88.46991 | 705 ft | 0 kts | 298° |
| 2026-04-10 18:54 | 41.76867 | -88.47000 | 705 ft | 4 kts | 272° |
| 2026-04-10 18:54 | 41.76866 | -88.47110 | 704 ft | 19 kts | 269° |
| 2026-04-10 18:55 | 41.76848 | -88.47304 | 705 ft | 23 kts | 242° |
| 2026-04-10 18:55 | 41.76779 | -88.47444 | 702 ft | 7 kts | 220° |
| 2026-04-10 18:55 | 41.76801 | -88.47555 | 706 ft | 23 kts | 327° |
| 2026-04-10 18:55 | 41.76983 | -88.47721 | 711 ft | 46 kts | 324° |
| 2026-04-10 18:56 | 41.77375 | -88.48068 | 713 ft | 86 kts | 327° |
| 2026-04-10 18:56 | 41.77936 | -88.48573 | 768 ft | 103 kts | 329° |
| 2026-04-10 18:56 | 41.78548 | -88.49070 | 956 ft | 101 kts | 334° |
| 2026-04-10 18:56 | 41.79122 | -88.49611 | 1137 ft | 105 kts | 307° |
| 2026-04-10 18:57 | 41.79045 | -88.50559 | 1343 ft | 115 kts | 227° |
| 2026-04-10 18:57 | 41.78253 | -88.50596 | 1445 ft | 125 kts | 154° |
| 2026-04-10 18:57 | 41.77501 | -88.49991 | 1526 ft | 129 kts | 146° |
| 2026-04-10 18:57 | 41.76805 | -88.49315 | 1737 ft | 121 kts | 142° |
| 2026-04-10 18:58 | 41.76085 | -88.48647 | 1648 ft | 128 kts | 147° |
| 2026-04-10 18:58 | 41.75319 | -88.48007 | 1485 ft | 124 kts | 147° |
| 2026-04-10 18:58 | 41.74866 | -88.47178 | 1215 ft | 104 kts | 88° |
| 2026-04-10 18:58 | 41.75162 | -88.46516 | 1032 ft | 75 kts | 14° |
| 2026-04-10 18:59 | 41.75638 | -88.46577 | 931 ft | 67 kts | 340° |
| 2026-04-10 18:59 | 41.76019 | -88.46878 | 847 ft | 61 kts | 327° |
| 2026-04-10 18:59 | 41.76379 | -88.47193 | 777 ft | 62 kts | 327° |
| 2026-04-10 18:59 | 41.76718 | -88.47492 | 716 ft | 56 kts | 328° |
| 2026-04-10 19:00 | 41.77034 | -88.47760 | 693 ft | 52 kts | 330° |
| 2026-04-10 19:00 | 41.77322 | -88.48018 | 693 ft | 54 kts | 328° |
| 2026-04-10 19:00 | 41.77734 | -88.48373 | 715 ft | 87 kts | 330° |
| 2026-04-10 19:00 | 41.78271 | -88.48883 | 840 ft | 96 kts | 329° |
| 2026-04-10 19:01 | 41.78820 | -88.49372 | 1073 ft | 95 kts | 328° |
| 2026-04-10 19:01 | 41.78968 | -88.50129 | 1261 ft | 109 kts | 246° |
| 2026-04-10 19:01 | 41.78389 | -88.50741 | 1449 ft | 114 kts | 173° |
| 2026-04-10 19:01 | 41.77736 | -88.50147 | 1532 ft | 110 kts | 140° |
| 2026-04-10 19:02 | 41.77139 | -88.49568 | 1584 ft | 103 kts | 142° |
| 2026-04-10 19:02 | 41.76559 | -88.49013 | 1607 ft | 101 kts | 141° |
| 2026-04-10 19:02 | 41.75993 | -88.48455 | 1601 ft | 102 kts | 139° |
| 2026-04-10 19:02 | 41.75426 | -88.47893 | 1522 ft | 101 kts | 143° |
| 2026-04-10 19:03 | 41.74850 | -88.47406 | 1522 ft | 96 kts | 145° |
| 2026-04-10 19:03 | 41.74436 | -88.46791 | 1558 ft | 83 kts | 95° |
| 2026-04-10 19:03 | 41.74628 | -88.46152 | 1488 ft | 75 kts | 41° |
| 2026-04-10 19:03 | 41.75052 | -88.46087 | 1220 ft | 69 kts | 337° |
| 2026-04-10 19:04 | 41.75493 | -88.46406 | 968 ft | 81 kts | 328° |
| 2026-04-10 19:04 | 41.75883 | -88.46777 | 940 ft | 72 kts | 328° |
| 2026-04-10 19:04 | 41.76301 | -88.47122 | 836 ft | 68 kts | 328° |
| 2026-04-10 19:04 | 41.76697 | -88.47471 | 740 ft | 68 kts | 327° |
| 2026-04-10 19:05 | 41.77031 | -88.47768 | 707 ft | 45 kts | 330° |
| 2026-04-10 19:05 | 41.77378 | -88.48066 | 711 ft | 78 kts | 327° |
| 2026-04-10 19:05 | 41.77715 | -88.48366 | 716 ft | 96 kts | 327° |
| 2026-04-10 19:05 | 41.78465 | -88.49060 | 985 ft | 93 kts | 329° |
| 2026-04-10 19:06 | 41.78833 | -88.49632 | 1372 ft | 87 kts | 266° |
| 2026-04-10 19:06 | 41.78534 | -88.49946 | 1496 ft | 93 kts | 187° |
| 2026-04-10 19:06 | 41.77935 | -88.49664 | 1498 ft | 94 kts | 147° |
| 2026-04-10 19:06 | 41.77365 | -88.49167 | 1470 ft | 97 kts | 141° |
| 2026-04-10 19:07 | 41.76820 | -88.48571 | 1400 ft | 101 kts | 144° |
| 2026-04-10 19:07 | 41.76219 | -88.48086 | 1317 ft | 101 kts | 149° |
| 2026-04-10 19:07 | 41.75610 | -88.47650 | 1212 ft | 96 kts | 153° |
| 2026-04-10 19:07 | 41.75124 | -88.47217 | 1144 ft | 73 kts | 100° |
| 2026-04-10 19:08 | 41.75297 | -88.46743 | 1063 ft | 57 kts | 21° |
| 2026-04-10 19:08 | 41.75700 | -88.46708 | 987 ft | 59 kts | 348° |
| 2026-04-10 19:08 | 41.76108 | -88.46957 | 854 ft | 68 kts | 324° |
| 2026-04-10 19:08 | 41.76459 | -88.47270 | 763 ft | 59 kts | 331° |
| 2026-04-10 19:09 | 41.76793 | -88.47553 | 711 ft | 54 kts | 326° |
| 2026-04-10 19:09 | 41.77040 | -88.47772 | 703 ft | 24 kts | 329° |
| 2026-04-10 19:09 | 41.77175 | -88.47899 | 713 ft | 29 kts | 325° |
| 2026-04-10 19:09 | 41.77342 | -88.48037 | 710 ft | 13 kts | 323° |
| 2026-04-10 19:10 | 41.77344 | -88.48123 | 712 ft | 9 kts | 238° |
| 2026-04-10 19:10 | 41.77332 | -88.48148 | 712 ft | 0 kts | 236° |